Data for 09/04/2015

Time Sea-Level Adjusted Pressure Absolute Pressure Temperature Relative Humidity Dew Point   
(mb) (inHg) (mb) (inHg) (C) (F) (%) (C) (F)
00:05 1016 30 845 24.95 9.9 49.7 77 5.9 42.7
00:10 1016 30 845 24.95 9.8 49.6 77 6 42.8
00:15 1016 30 845 24.95 9.8 49.6 77 6 42.8
00:20 1016 30 845 24.95 9.9 49.8 77 6.1 42.9
00:25 1016 30 845 24.95 10 49.9 77 6 42.9
00:30 1016 30 845 24.95 10.1 50.1 76 6 42.9
00:35 1016 30 846 24.98 9.8 49.6 78 6.1 42.9
00:40 1016 30 846 24.98 9.6 49.3 77 5.9 42.5
00:45 1017 30.03 846 24.98 9.5 49 78 5.9 42.6
00:50 1017 30.03 846 24.98 9.4 49 78 5.8 42.4
00:55 1017 30.03 846 24.98 9.5 49.1 78 5.9 42.7
01:00 1017 30.03 846 24.98 9.5 49.1 79 6.1 43
01:05 1017 30.03 846 24.98 9.5 49.1 79 6.1 43
01:10 1017 30.03 846 24.98 9.4 49 80 6.2 43.2
01:15 1017 30.03 846 24.98 9.4 48.9 80 6.2 43.2
01:20 1017 30.03 846 24.98 9.4 49 80 6.2 43.1
01:25 1017 30.03 847 25.01 9.4 48.9 81 6.3 43.3
01:30 1017 30.03 847 25.01 9.2 48.5 82 6.3 43.4
01:35 1017 30.03 847 25.01 9 48.3 83 6.3 43.4
01:40 1017 30.03 846 24.98 9 48.2 83 6.3 43.4
01:45 1017 30.03 847 25.01 9 48.3 83 6.4 43.5
01:50 1017 30.03 846 24.98 9.1 48.4 83 6.4 43.6
01:55 1017 30.03 846 24.98 9.1 48.3 84 6.5 43.6
02:00 1017 30.03 846 24.98 9.1 48.3 83 6.4 43.5
02:05 1017 30.03 846 24.98 9.1 48.3 83 6.4 43.5
02:10 1017 30.03 846 24.98 9.1 48.4 83 6.4 43.5
02:15 1017 30.03 846 24.98 9.2 48.5 82 6.3 43.3
02:20 1017 30.03 846 24.98 9.2 48.5 83 6.4 43.4
02:25 1017 30.03 846 24.98 9.2 48.5 83 6.4 43.5
02:30 1017 30.03 846 24.98 9.2 48.6 82 6.4 43.5
02:35 1017 30.03 846 24.98 9.2 48.6 83 6.4 43.5
02:40 1017 30.03 846 24.98 9.2 48.6 82 6.3 43.4
02:45 1017 30.03 846 24.98 9.3 48.7 82 6.4 43.4
02:50 1017 30.03 846 24.98 9.3 48.7 81 6.2 43.2
02:55 1016 30 846 24.98 9.3 48.7 81 6.2 43.2
03:00 1016 30 846 24.98 9.3 48.7 81 6.2 43.2
03:05 1016 30 846 24.98 9.4 48.8 81 6.3 43.3
03:10 1016 30 846 24.98 9.4 48.8 81 6.2 43.2
03:15 1016 30 845 24.95 9.4 48.9 80 6.2 43.2
03:20 1016 30 845 24.95 9.5 49.1 80 6.3 43.4
03:25 1016 30 845 24.95 9.6 49.2 80 6.3 43.3
03:30 1016 30 845 24.95 9.6 49.2 79 6.2 43.2
03:35 1016 30 845 24.95 9.7 49.4 79 6.2 43.1
03:40 1016 30 845 24.95 9.8 49.6 79 6.3 43.3
03:45 1016 30 845 24.95 9.6 49.3 81 6.5 43.6
03:50 1016 30 845 24.95 9.4 48.9 81 6.4 43.5
03:55 1016 30 845 24.95 9.2 48.6 82 6.3 43.4
04:00 1016 30 845 24.95 9.1 48.3 83 6.3 43.4
04:05 1016 30 845 24.95 8.9 47.9 84 6.3 43.3
04:10 1015 29.97 845 24.95 8.7 47.7 84 6.2 43.2
04:15 1016 30 845 24.95 8.6 47.6 85 6.2 43.2
04:20 1016 30 845 24.95 8.6 47.5 85 6.2 43.1
04:25 1016 30 845 24.95 8.6 47.4 85 6.1 43
04:30 1016 30 845 24.95 8.6 47.4 84 6.1 43
04:35 1016 30 845 24.95 8.6 47.4 84 6 42.9
04:40 1016 30 845 24.95 8.6 47.5 84 6 42.8
04:45 1016 30 845 24.95 8.6 47.5 83 6 42.8
04:50 1016 30 845 24.95 8.6 47.5 83 5.9 42.7
04:55 1016 30 845 24.95 8.6 47.5 82 5.8 42.4
05:00 1016 30 845 24.95 8.8 47.8 81 5.7 42.3
05:05 1016 30 845 24.95 8.9 47.9 82 5.9 42.7
05:10 1016 30 845 24.95 8.6 47.5 85 6.2 43.1
05:15 1016 30 845 24.95 8.4 47 86 6.2 43.1
05:20 1016 30 845 24.95 8.2 46.8 87 6.2 43.1
05:25 1016 30 845 24.95 8.1 46.6 87 6.1 43
05:30 1016 30 845 24.95 8.2 46.7 86 6 42.8
05:35 1016 30 845 24.95 8.3 46.9 87 6.2 43.2
05:40 1016 30 845 24.95 8.3 46.9 86 6.1 43
05:45 1016 30 845 24.95 8.4 47.1 85 6.1 42.9
05:50 1016 30 845 24.95 8.4 47.1 85 6.1 43
05:55 1016 30 846 24.98 8.5 47.2 85 6.1 42.9
06:00 1016 30 846 24.98 8.6 47.4 84 6.1 43
06:05 1016 30 846 24.98 8.7 47.6 84 6.2 43.1
06:10 1016 30 846 24.98 8.7 47.6 84 6.2 43.1
06:15 1016 30 846 24.98 8.7 47.6 85 6.3 43.3
06:20 1016 30 846 24.98 8.7 47.6 85 6.3 43.3
06:25 1016 30 846 24.98 8.7 47.6 85 6.3 43.4
06:30 1016 30 846 24.98 8.8 47.8 85 6.4 43.5
06:35 1016 30 846 24.98 8.8 47.8 85 6.4 43.5
06:40 1017 30.03 846 24.98 8.7 47.7 85 6.4 43.6
06:45 1017 30.03 846 24.98 8.6 47.6 86 6.4 43.6
06:50 1017 30.03 846 24.98 8.4 47.1 88 6.4 43.6
06:55 1017 30.03 846 24.98 8.3 47 88 6.4 43.6
07:00 1016 30 846 24.98 8.4 47.2 88 6.5 43.7
07:05 1016 30 846 24.98 8.5 47.3 87 6.5 43.7
07:10 1016 30 846 24.98 8.5 47.3 87 6.4 43.5
07:15 1016 30 846 24.98 8.6 47.5 87 6.5 43.7
07:20 1017 30.03 846 24.98 8.7 47.7 86 6.5 43.6
07:25 1017 30.03 846 24.98 8.8 47.8 85 6.4 43.5
07:30 1017 30.03 846 24.98 8.8 47.9 85 6.4 43.6
07:35 1017 30.03 846 24.98 8.8 47.8 85 6.5 43.6
07:40 1017 30.03 846 24.98 8.8 47.9 85 6.4 43.6
07:45 1017 30.03 846 24.98 9 48.1 85 6.6 43.9
07:50 1017 30.03 846 24.98 9 48.1 84 6.5 43.7
07:55 1017 30.03 846 24.98 9.1 48.3 84 6.5 43.7
08:00 1017 30.03 846 24.98 9.2 48.5 83 6.5 43.7
08:05 1017 30.03 846 24.98 9.3 48.7 83 6.6 43.8
08:10 1017 30.03 846 24.98 9.5 49 82 6.5 43.7
08:15 1017 30.03 846 24.98 9.5 49.1 81 6.4 43.5
08:20 1017 30.03 846 24.98 9.6 49.2 80 6.4 43.4
08:25 1017 30.03 846 24.98 9.7 49.4 78 6.1 43
08:30 1017 30.03 846 24.98 9.9 49.7 75 5.6 42
08:35 1017 30.03 846 24.98 10 49.9 74 5.6 42.1
08:40 1017 30.03 846 24.98 10.1 50.2 74 5.6 42.2
08:45 1017 30.03 846 24.98 10.1 50.2 73 5.5 41.8
08:50 1017 30.03 846 24.98 10.1 50.1 73 5.4 41.7
08:55 1017 30.03 846 24.98 10.1 50.1 73 5.5 41.9
09:00 1017 30.03 846 24.98 10 50.1 73 5.4 41.7
09:05 1017 30.03 846 24.98 10 50.1 73 5.4 41.7
09:10 1017 30.03 846 24.98 10.1 50.1 73 5.5 41.9
09:15 1017 30.03 846 24.98 10.2 50.3 73 5.6 42.1
09:20 1017 30.03 846 24.98 10.3 50.5 72 5.5 41.8
09:25 1017 30.03 846 24.98 10.2 50.4 72 5.4 41.7
09:30 1017 30.03 846 24.98 10.3 50.5 72 5.5 41.9
09:35 1017 30.03 846 24.98 10.3 50.5 72 5.5 42
09:40 1017 30.03 846 24.98 10.3 50.6 72 5.5 42
09:45 1017 30.03 846 24.98 10.4 50.7 72 5.6 42
09:50 1017 30.03 846 24.98 10.4 50.8 72 5.7 42.3
09:55 1017 30.03 846 24.98 10.6 51 73 6 42.8
10:00 1017 30.03 846 24.98 10.6 51.1 74 6.2 43.1
10:05 1017 30.03 846 24.98 10.6 51 73 5.9 42.7
10:10 1017 30.03 846 24.98 10.6 51.2 74 6.2 43.1
10:15 1017 30.03 846 24.98 10.6 51.1 72 5.9 42.6
10:20 1017 30.03 846 24.98 10.7 51.3 73 6.1 43
10:25 1017 30.03 846 24.98 10.8 51.4 72 5.9 42.6
10:30 1017 30.03 846 24.98 10.9 51.6 72 6.1 43.1
10:35 1017 30.03 846 24.98 11 51.7 74 6.5 43.6
10:40 1017 30.03 846 24.98 11.2 52.1 71 6.2 43.1
10:45 1017 30.03 846 24.98 11.2 52.2 71 6.2 43.2
10:50 1017 30.03 846 24.98 11.2 52.2 71 6.1 43
10:55 1017 30.03 846 24.98 11.5 52.6 69 6.1 42.9
11:00 1017 30.03 846 24.98 11.7 53.1 72 6.9 44.5
11:05 1017 30.03 846 24.98 11.5 52.7 71 6.5 43.8
11:10 1017 30.03 846 24.98 12.3 54.1 67 6.4 43.5
11:15 1017 30.03 846 24.98 12.5 54.4 68 6.7 44.1
11:20 1017 30.03 846 24.98 12.6 54.6 66 6.5 43.8
11:25 1017 30.03 846 24.98 12.9 55.1 66 6.8 44.3
11:30 1017 30.03 846 24.98 12.8 55 65 6.4 43.5
11:35 1016 30 846 24.98 12.4 54.2 66 6.3 43.4
11:40 1016 30 846 24.98 12.6 54.8 64 6.1 43
11:45 1016 30 846 24.98 12.7 54.8 66 6.5 43.7
11:50 1016 30 846 24.98 12.8 55.1 66 6.6 43.9
11:55 1016 30 846 24.98 13 55.4 64 6.3 43.4
12:00 1016 30 846 24.98 12.7 54.9 66 6.6 43.9
12:05 1016 30 846 24.98 13 55.5 63 6.2 43.1
12:10 1016 30 846 24.98 13.4 56.1 63 6.6 43.9
12:15 1016 30 845 24.95 12.7 54.8 65 6.4 43.5
12:20 1016 30 846 24.98 13 55.3 64 6.3 43.3
12:25 1016 30 845 24.95 13.6 56.5 62 6.6 43.9
12:30 1016 30 845 24.95 13.7 56.6 64 7.1 44.8
12:35 1016 30 845 24.95 13 55.5 66 6.8 44.2
12:40 1016 30 845 24.95 12.7 54.9 65 6.5 43.6
12:45 1016 30 845 24.95 13.4 56.1 63 6.6 43.9
12:50 1016 30 845 24.95 13.6 56.4 63 6.7 44
12:55 1016 30 845 24.95 13.9 57 62 6.7 44.1
13:00 1016 30 845 24.95 14.1 57.3 62 6.9 44.4
13:05 1016 30 845 24.95 13.4 56.1 65 7.1 44.8
13:10 1016 30 845 24.95 13.6 56.4 63 6.6 43.9
13:15 1016 30 845 24.95 13.9 57 63 6.9 44.5
13:20 1016 30 845 24.95 13.9 57 62 6.9 44.4
13:25 1016 30 845 24.95 13.9 57 62 6.8 44.2
13:30 1016 30 845 24.95 14.3 57.8 61 6.9 44.4
13:35 1016 30 845 24.95 14.3 57.8 60 6.9 44.3
13:40 1016 30 845 24.95 14.3 57.8 61 6.9 44.3
13:45 1016 30 845 24.95 14.5 58 60 6.9 44.4
13:50 1016 30 845 24.95 13.9 57 64 7.3 45.1
13:55 1016 30 845 24.95 13.5 56.4 63 6.8 44.2
14:00 1016 30 845 24.95 13.9 56.9 62 6.8 44.3
14:05 1016 30 845 24.95 14.1 57.3 62 6.9 44.4
14:10 1016 30 845 24.95 14.2 57.6 61 7 44.6
14:15 1016 30 845 24.95 14.2 57.6 62 7.1 44.8
14:20 1016 30 845 24.95 14.2 57.5 61 6.9 44.4
14:25 1016 30 845 24.95 14 57.2 63 7.1 44.7
14:30 1016 30 845 24.95 14 57.2 62 7 44.6
14:35 1016 30 845 24.95 14 57.1 63 7.2 44.9
14:40 1016 30 845 24.95 13.9 57 63 7 44.6
14:45 1016 30 845 24.95 13.8 56.8 65 7.5 45.4
14:50 1016 30 845 24.95 13.9 57 66 7.8 46
14:55 1016 30 845 24.95 13.7 56.7 67 7.7 45.9
15:00 1016 30 845 24.95 13.5 56.3 66 7.3 45.1
15:05 1016 30 845 24.95 13.4 56.1 66 7.3 45.1
15:10 1016 30 845 24.95 13.5 56.3 66 7.2 45
15:15 1016 30 845 24.95 13.6 56.5 64 7.1 44.7
15:20 1016 30 845 24.95 13.6 56.5 64 7.1 44.8
15:25 1016 30 845 24.95 13.6 56.4 63 6.6 44
15:30 1016 30 845 24.95 13.6 56.6 63 6.8 44.2
15:35 1016 30 845 24.95 13.7 56.6 63 6.7 44.1
15:40 1016 30 845 24.95 13.7 56.7 63 6.8 44.3
15:45 1016 30 845 24.95 13.9 57 63 7.1 44.8
15:50 1016 30 845 24.95 14 57.1 62 6.9 44.4
15:55 1016 30 845 24.95 13.7 56.6 63 6.8 44.3
16:00 1016 30 845 24.95 13.7 56.6 64 7.1 44.7
16:05 1016 30 845 24.95 13.5 56.3 64 7 44.6
16:10 1016 30 845 24.95 13.4 56 66 7.3 45.1
16:15 1016 30 845 24.95 13.2 55.8 68 7.5 45.6
16:20 1016 30 845 24.95 12.7 54.8 70 7.3 45.2
16:25 1016 30 845 24.95 12.4 54.4 71 7.4 45.3
16:30 1016 30 845 24.95 12.1 53.8 74 7.7 45.8
16:35 1016 30 845 24.95 12 53.6 73 7.3 45.1
16:40 1015 29.97 845 24.95 12 53.5 72 7.2 44.9
16:45 1016 30 845 24.95 12 53.7 73 7.3 45.1
16:50 1016 30 845 24.95 12 53.5 74 7.5 45.4
16:55 1016 30 845 24.95 12.1 53.7 74 7.5 45.5
17:00 1016 30 845 24.95 12.5 54.4 72 7.6 45.7
17:05 1016 30 845 24.95 12.8 55 69 7.3 45.1
17:10 1016 30 845 24.95 13 55.4 67 7.1 44.8
17:15 1016 30 845 24.95 12.8 55.1 70 7.5 45.5
17:20 1016 30 845 24.95 12.8 55 69 7.3 45.1
17:25 1016 30 845 24.95 12.8 55.1 69 7.4 45.3
17:30 1016 30 845 24.95 12.9 55.3 68 7.2 44.9
17:35 1016 30 845 24.95 12.7 54.9 70 7.4 45.3
17:40 1015 29.97 845 24.95 12.7 54.8 69 7.2 45
17:45 1015 29.97 845 24.95 12.9 55.1 69 7.3 45.2
17:50 1016 30 845 24.95 12.8 55 69 7.3 45.1
17:55 1016 30 845 24.95 12.7 54.9 70 7.4 45.3
18:00 1016 30 845 24.95 12.7 54.8 71 7.5 45.5
18:05 1016 30 845 24.95 12.5 54.4 72 7.7 45.8
18:10 1016 30 845 24.95 12.3 54.1 74 7.8 46
18:15 1015 29.97 845 24.95 12.1 53.8 77 8.2 46.8
18:20 1015 29.97 845 24.95 12 53.5 75 7.7 45.9
18:25 1016 30 845 24.95 11.8 53.3 77 8 46.5
18:30 1015 29.97 845 24.95 11.9 53.4 76 7.9 46.2
18:35 1015 29.97 845 24.95 11.9 53.5 78 8.3 47
18:40 1015 29.97 844 24.92 11.8 53.2 79 8.2 46.8
18:45 1015 29.97 844 24.92 11.7 53 77 7.9 46.2
18:50 1015 29.97 844 24.92 11.7 53.1 78 8.1 46.5
18:55 1015 29.97 844 24.92 12 53.6 76 7.9 46.2
19:00 1015 29.97 844 24.92 12.3 54.1 74 7.8 46
19:05 1015 29.97 844 24.92 12.5 54.4 72 7.7 45.8
19:10 1015 29.97 844 24.92 12.7 54.8 71 7.5 45.6
19:15 1015 29.97 844 24.92 13 55.4 69 7.5 45.5
19:20 1015 29.97 844 24.92 13.2 55.8 68 7.5 45.5
19:25 1015 29.97 844 24.92 13.3 55.9 68 7.6 45.6
19:30 1015 29.97 844 24.92 13.3 55.9 68 7.6 45.7
19:35 1015 29.97 844 24.92 13.4 56.1 68 7.6 45.7
19:40 1015 29.97 844 24.92 13.4 56.2 68 7.7 45.8
19:45 1015 29.97 844 24.92 13.4 56.2 68 7.6 45.6
19:50 1015 29.97 844 24.92 13.5 56.4 67 7.6 45.7
19:55 1015 29.97 844 24.92 13.5 56.4 68 7.8 46.1
20:00 1015 29.97 844 24.92 12.9 55.3 72 8.1 46.5
20:05 1015 29.97 844 24.92 12 53.7 76 7.9 46.3
20:10 1015 29.97 845 24.95 11.4 52.6 78 7.8 46.1
20:15 1015 29.97 845 24.95 11.1 52 80 7.8 46
20:20 1015 29.97 845 24.95 11.1 52 78 7.5 45.4
20:25 1016 30 845 24.95 11.2 52.1 78 7.5 45.5
20:30 1015 29.97 845 24.95 11.1 51.9 76 7 44.6
20:35 1016 30 845 24.95 11.2 52.2 75 7 44.7
20:40 1016 30 845 24.95 11.2 52.1 76 7.1 44.8
20:45 1016 30 845 24.95 11.2 52.1 75 7 44.6
20:50 1015 29.97 845 24.95 11.3 52.3 75 7.1 44.8
20:55 1015 29.97 845 24.95 11.4 52.5 75 7.1 44.8
21:00 1015 29.97 844 24.92 11.6 52.9 74 7.2 45
21:05 1015 29.97 844 24.92 12.2 53.9 72 7.4 45.3
21:10 1015 29.97 844 24.92 12.4 54.3 72 7.5 45.6
21:15 1015 29.97 844 24.92 12.4 54.2 72 7.5 45.4
21:20 1015 29.97 844 24.92 12.4 54.2 72 7.5 45.5
21:25 1015 29.97 844 24.92 12.2 54 72 7.5 45.4
21:30 1015 29.97 844 24.92 12.1 53.7 72 7.3 45.1
21:35 1015 29.97 845 24.95 12 53.5 72 7.1 44.8
21:40 1015 29.97 844 24.92 11.8 53.3 72 7 44.6
21:45 1016 30 845 24.95 11.7 53.1 73 7 44.6
21:50 1016 30 845 24.95 11.7 53 73 7.1 44.7
21:55 1016 30 845 24.95 11.6 52.9 74 7.1 44.8
22:00 1016 30 845 24.95 11.5 52.8 76 7.4 45.3
22:05 1015 29.97 845 24.95 11.3 52.3 78 7.6 45.6
22:10 1015 29.97 844 24.92 11.1 51.9 81 7.9 46.2
22:15 1014 29.94 843 24.89 10.9 51.6 81 7.7 45.9
22:20 1014 29.94 843 24.89 10.8 51.4 80 7.5 45.5
22:25 1014 29.94 844 24.92 10.9 51.5 79 7.4 45.3
22:30 1015 29.97 844 24.92 11 51.7 80 7.6 45.7
22:35 1015 29.97 844 24.92 10.9 51.7 79 7.4 45.4
22:40 1015 29.97 845 24.95 10.9 51.6 80 7.6 45.6
22:45 1016 30 845 24.95 10.8 51.4 79 7.4 45.3
22:50 1016 30 845 24.95 10.8 51.4 79 7.4 45.2
22:55 1016 30 845 24.95 10.8 51.4 79 7.4 45.3
23:00 1016 30 845 24.95 10.8 51.4 79 7.3 45.1
23:05 1016 30 845 24.95 10.7 51.3 80 7.5 45.5
23:10 1016 30 845 24.95 10.5 50.9 83 7.8 46
23:15 1016 30 845 24.95 10.3 50.5 84 7.8 46
23:20 1014 29.94 843 24.89 10.1 50.2 85 7.7 45.8
23:25 1013 29.91 843 24.89 9.9 49.9 86 7.7 45.9
23:30 1014 29.94 844 24.92 9.9 49.7 86 7.6 45.7
23:35 1014 29.94 844 24.92 9.9 49.8 85 7.5 45.5
23:40 1015 29.97 844 24.92 10 50 84 7.4 45.3
23:45 1015 29.97 844 24.92 10.1 50.2 84 7.5 45.6
23:50 1015 29.97 844 24.92 10.1 50.1 84 7.6 45.6
23:55 1014 29.94 844 24.92 10 50 83 7.3 45.2
24:00 1014 29.94 843 24.89 10 50.1 82 7.2 44.9